createdAt,value
2023-02-07T00:01:21.946Z,0.99
2023-02-07T00:03:26.890Z,1.04
2023-02-07T00:05:31.929Z,1.05
2023-02-07T00:07:39.532Z,1.07
2023-02-07T00:09:44.784Z,1.04
2023-02-07T00:11:49.717Z,0.98
2023-02-07T00:13:59.383Z,0.99
2023-02-07T00:16:05.240Z,0.95
2023-02-07T00:18:10.156Z,0.92
2023-02-07T00:20:17.462Z,0.95
2023-02-07T00:22:22.737Z,0.93
2023-02-07T00:24:30.525Z,0.93
2023-02-07T00:26:36.375Z,0.92
2023-02-07T00:28:41.374Z,0.87
2023-02-07T00:30:46.573Z,0.86
2023-02-07T00:32:51.516Z,0.86
2023-02-07T00:34:56.428Z,0.92
2023-02-07T00:37:01.696Z,0.91
2023-02-07T00:39:11.172Z,0.93
2023-02-07T00:41:20.130Z,0.98
2023-02-07T00:43:30.024Z,0.98
2023-02-07T00:45:35.443Z,1.00
2023-02-07T00:47:40.573Z,0.94
2023-02-07T00:49:46.182Z,0.94
2023-02-07T00:51:51.079Z,0.86
2023-02-07T00:53:56.555Z,0.84
2023-02-07T00:56:02.838Z,0.82
2023-02-07T00:58:10.875Z,0.78
2023-02-07T01:00:17.891Z,0.72
2023-02-07T01:02:24.779Z,0.63
2023-02-07T01:04:29.812Z,0.58
2023-02-07T01:06:37.137Z,0.54
2023-02-07T01:08:42.701Z,0.42
2023-02-07T01:10:48.366Z,0.24
2023-02-07T01:12:54.177Z,0.07
2023-02-07T01:15:03.518Z,0.03
2023-02-07T01:17:09.597Z,-0.14
2023-02-07T01:19:16.127Z,-0.32
2023-02-07T01:21:23.454Z,-0.49
2023-02-07T01:23:28.336Z,-0.51
2023-02-07T01:25:33.990Z,-0.68
2023-02-07T01:27:39.659Z,-0.77
2023-02-07T01:29:45.459Z,-0.92
2023-02-07T01:31:54.220Z,-1.11
2023-02-07T01:34:04.245Z,-1.24
2023-02-07T01:36:12.840Z,-1.28
2023-02-07T01:38:19.249Z,-1.17
2023-02-07T01:40:24.819Z,-1.22
2023-02-07T01:42:31.662Z,-1.28
2023-02-07T01:45:08.773Z,-1.39
2023-02-07T01:47:22.183Z,-1.44
2023-02-07T01:49:31.896Z,-1.55
2023-02-07T01:51:38.186Z,-1.56
2023-02-07T01:53:44.201Z,-1.61
2023-02-07T01:55:53.284Z,-1.67
2023-02-07T01:57:58.890Z,-1.78
2023-02-07T02:00:05.232Z,-1.87
2023-02-07T02:02:26.271Z,-1.95
2023-02-07T02:04:31.558Z,-2.04
2023-02-07T02:06:38.256Z,-2.10
2023-02-07T02:08:43.552Z,-2.14
2023-02-07T02:11:05.742Z,-2.16
2023-02-07T02:13:23.306Z,-2.22
2023-02-07T02:15:40.237Z,-2.23
2023-02-07T02:18:15.944Z,-2.30
2023-02-07T02:21:10.054Z,-2.41
2023-02-07T02:23:23.849Z,-2.46
2023-02-07T02:26:18.966Z,-2.48
2023-02-07T02:29:03.020Z,-2.58
2023-02-07T02:31:44.628Z,-2.69
2023-02-07T02:33:58.393Z,-2.73
2023-02-07T02:36:16.862Z,-2.74
2023-02-07T02:38:33.458Z,-2.71
2023-02-07T02:40:51.358Z,-2.79
2023-02-07T02:43:04.887Z,-2.77
2023-02-07T02:45:15.238Z,-2.83
2023-02-07T02:47:22.675Z,-2.84
2023-02-07T02:49:30.637Z,-2.85
2023-02-07T02:51:35.833Z,-2.96
2023-02-07T02:53:41.145Z,-2.96
2023-02-07T02:56:17.020Z,-2.84
2023-02-07T02:58:33.131Z,-2.90
2023-02-07T03:00:59.314Z,-2.97
2023-02-07T03:03:38.187Z,-2.99
2023-02-07T03:06:00.652Z,-2.89
2023-02-07T03:08:21.051Z,-2.94
2023-02-07T03:10:38.395Z,-2.94
2023-02-07T03:12:51.271Z,-2.93
2023-02-07T03:15:04.451Z,-3.03
2023-02-07T03:17:22.471Z,-3.00
2023-02-07T03:19:33.363Z,-3.10
2023-02-07T03:21:46.861Z,-3.15
2023-02-07T03:23:52.335Z,-3.21
2023-02-07T03:26:00.715Z,-3.26
2023-02-07T03:28:07.317Z,-3.32
2023-02-07T03:30:19.384Z,-3.27
2023-02-07T03:32:25.325Z,-3.26
2023-02-07T03:34:38.096Z,-3.28
2023-02-07T03:36:52.947Z,-3.30
2023-02-07T03:38:57.927Z,-3.32
2023-02-07T03:41:09.781Z,-3.36
2023-02-07T03:43:18.709Z,-3.45
2023-02-07T03:45:25.505Z,-3.45
2023-02-07T03:47:31.777Z,-3.48
2023-02-07T03:49:36.727Z,-3.52
2023-02-07T03:51:41.643Z,-3.58
2023-02-07T03:53:49.148Z,-3.61
2023-02-07T03:55:54.276Z,-3.63
2023-02-07T03:57:59.617Z,-3.62
2023-02-07T04:00:04.572Z,-3.62
2023-02-07T04:02:17.434Z,-3.65
2023-02-07T04:04:22.948Z,-3.60
2023-02-07T04:06:28.370Z,-3.57
2023-02-07T04:08:34.639Z,-3.63
2023-02-07T04:10:42.099Z,-3.63
2023-02-07T04:12:47.275Z,-3.67
2023-02-07T04:14:52.412Z,-3.80
2023-02-07T04:16:57.299Z,-3.81
2023-02-07T04:19:02.351Z,-3.81
2023-02-07T04:21:11.483Z,-3.75
2023-02-07T04:23:17.003Z,-3.74
2023-02-07T04:25:22.328Z,-3.76
2023-02-07T04:27:32.219Z,-3.79
2023-02-07T04:29:37.712Z,-3.84
2023-02-07T04:31:42.977Z,-3.77
2023-02-07T04:33:47.877Z,-3.73
2023-02-07T04:35:59.293Z,-3.72
2023-02-07T04:38:04.701Z,-3.74
2023-02-07T04:40:12.167Z,-3.73
2023-02-07T04:42:17.305Z,-3.76
2023-02-07T04:44:25.281Z,-3.80
2023-02-07T04:46:30.589Z,-3.75
2023-02-07T04:48:37.003Z,-3.70
2023-02-07T04:50:41.947Z,-3.74
2023-02-07T04:52:46.857Z,-3.80
2023-02-07T04:54:52.026Z,-3.80
2023-02-07T04:56:57.239Z,-3.88
2023-02-07T04:59:02.463Z,-3.85
2023-02-07T05:01:10.058Z,-3.86
2023-02-07T05:03:15.547Z,-3.91
2023-02-07T05:05:21.438Z,-3.93
2023-02-07T05:07:26.357Z,-3.91
2023-02-07T05:09:31.638Z,-3.95
2023-02-07T05:11:37.271Z,-4.03
2023-02-07T05:13:42.221Z,-4.05
2023-02-07T05:15:47.511Z,-4.12
2023-02-07T05:17:56.990Z,-4.16
2023-02-07T05:20:01.884Z,-4.14
2023-02-07T05:22:08.050Z,-4.10
2023-02-07T05:24:13.812Z,-4.11
2023-02-07T05:26:19.466Z,-4.01
2023-02-07T05:28:24.451Z,-3.98
2023-02-07T05:30:30.062Z,-4.07
2023-02-07T05:32:47.761Z,-4.15
2023-02-07T05:34:55.251Z,-4.09
2023-02-07T05:37:01.275Z,-4.26
2023-02-07T05:39:06.485Z,-4.33
2023-02-07T05:41:11.371Z,-4.45
2023-02-07T05:43:17.062Z,-4.48
2023-02-07T05:45:23.738Z,-4.56
2023-02-07T05:47:29.440Z,-4.60
2023-02-07T05:49:34.401Z,-4.64
2023-02-07T05:51:42.081Z,-4.46
2023-02-07T05:53:46.975Z,-4.55
2023-02-07T05:55:54.689Z,-4.64
2023-02-07T05:58:00.049Z,-4.56
2023-02-07T06:00:06.285Z,-4.66
2023-02-07T06:02:17.104Z,-4.67
2023-02-07T06:04:22.009Z,-4.61
2023-02-07T06:06:26.901Z,-4.73
2023-02-07T06:08:34.769Z,-4.63
2023-02-07T06:10:39.912Z,-4.73
2023-02-07T06:12:45.273Z,-4.77
2023-02-07T06:14:51.069Z,-4.85
2023-02-07T06:16:55.970Z,-4.95
2023-02-07T06:19:01.231Z,-4.93
2023-02-07T06:21:06.502Z,-4.92
2023-02-07T06:23:11.804Z,-4.98
2023-02-07T06:25:21.330Z,-4.93
2023-02-07T06:27:26.476Z,-4.94
2023-02-07T06:29:31.743Z,-4.95
2023-02-07T06:31:36.751Z,-4.91
2023-02-07T06:33:41.711Z,-4.93
2023-02-07T06:35:47.524Z,-4.94
2023-02-07T06:37:54.926Z,-5.13
2023-02-07T06:40:00.066Z,-5.20
2023-02-07T06:42:07.705Z,-5.05
2023-02-07T06:44:12.957Z,-5.12
2023-02-07T06:46:18.063Z,-5.25
2023-02-07T06:48:26.068Z,-5.04
2023-02-07T06:50:31.535Z,-4.99
2023-02-07T06:52:36.872Z,-5.08
2023-02-07T06:54:42.377Z,-5.19
2023-02-07T06:56:47.329Z,-5.24
2023-02-07T06:58:54.815Z,-5.17
2023-02-07T07:01:00.074Z,-5.09
2023-02-07T07:03:05.783Z,-5.06
2023-02-07T07:05:11.438Z,-5.01
2023-02-07T07:07:16.337Z,-5.00
2023-02-07T07:09:21.404Z,-4.96
2023-02-07T07:11:26.903Z,-5.07
2023-02-07T07:13:32.277Z,-5.06
2023-02-07T07:15:40.517Z,-4.97
2023-02-07T07:17:46.229Z,-5.01
2023-02-07T07:19:51.591Z,-5.06
2023-02-07T07:21:59.085Z,-4.97
2023-02-07T07:24:04.035Z,-4.95
2023-02-07T07:26:09.355Z,-4.82
2023-02-07T07:28:14.318Z,-4.79
2023-02-07T07:30:20.121Z,-4.79
2023-02-07T07:32:33.859Z,-4.54
2023-02-07T07:34:39.711Z,-4.52
2023-02-07T07:36:45.671Z,-4.43
2023-02-07T07:38:52.389Z,-4.37
2023-02-07T07:40:57.698Z,-4.30
2023-02-07T07:43:02.781Z,-4.37
2023-02-07T07:45:17.628Z,-4.35
2023-02-07T07:47:22.558Z,-4.28
2023-02-07T07:49:30.349Z,-4.19
2023-02-07T07:51:35.499Z,-4.03
2023-02-07T07:53:40.448Z,-3.95
2023-02-07T07:55:45.604Z,-3.91
2023-02-07T07:57:50.515Z,-3.79
2023-02-07T07:59:55.417Z,-3.61
2023-02-07T08:02:00.793Z,-3.45
2023-02-07T08:04:06.590Z,-3.27
2023-02-07T08:06:14.530Z,-3.29
2023-02-07T08:08:20.187Z,-3.12
2023-02-07T08:10:25.904Z,-3.08
2023-02-07T08:12:31.030Z,-3.08
2023-02-07T08:14:35.927Z,-3.07
2023-02-07T08:16:41.087Z,-3.05
2023-02-07T08:18:46.632Z,-2.83
2023-02-07T08:20:52.319Z,-2.62
2023-02-07T08:23:00.918Z,-2.66
2023-02-07T08:25:06.861Z,-2.61
2023-02-07T08:27:12.065Z,-2.59
2023-02-07T08:29:17.014Z,-2.62
2023-02-07T08:31:22.478Z,-2.65
2023-02-07T08:33:29.421Z,-2.65
2023-02-07T08:35:36.366Z,-2.63
2023-02-07T08:37:41.679Z,-2.59
2023-02-07T08:39:52.765Z,-2.53
2023-02-07T08:41:57.683Z,-2.48
2023-02-07T08:44:02.601Z,-2.41
2023-02-07T08:46:08.803Z,-2.37
2023-02-07T08:48:13.810Z,-2.35
2023-02-07T08:50:20.424Z,-2.29
2023-02-07T08:52:27.086Z,-2.19
2023-02-07T08:54:33.664Z,-2.19
2023-02-07T08:56:41.160Z,-2.17
2023-02-07T08:58:46.264Z,-2.11
2023-02-07T09:00:51.422Z,-2.02
2023-02-07T09:02:56.522Z,-1.96
2023-02-07T09:05:01.467Z,-1.95
2023-02-07T09:07:06.397Z,-1.85
2023-02-07T09:09:12.655Z,-1.77
2023-02-07T09:11:18.213Z,-1.65
2023-02-07T09:13:25.831Z,-1.55
2023-02-07T09:15:30.738Z,-1.53
2023-02-07T09:17:38.048Z,-1.41
2023-02-07T09:19:42.952Z,-1.31
2023-02-07T09:21:48.202Z,-1.20
2023-02-07T09:23:53.499Z,-1.07
2023-02-07T09:26:02.739Z,-0.88
2023-02-07T09:28:08.207Z,-0.77
2023-02-07T09:30:16.493Z,-0.70
2023-02-07T09:32:21.571Z,-0.55
2023-02-07T09:34:27.608Z,-0.40
2023-02-07T09:36:34.094Z,-0.29
2023-02-07T09:38:38.988Z,-0.16
2023-02-07T09:40:46.104Z,-0.05
2023-02-07T09:43:00.368Z,0.06
2023-02-07T09:45:11.700Z,0.11
2023-02-07T09:47:23.567Z,0.19
2023-02-07T09:49:38.670Z,0.26
2023-02-07T09:51:45.251Z,0.33
2023-02-07T09:53:56.703Z,0.41
2023-02-07T09:56:04.428Z,0.49
2023-02-07T09:58:17.021Z,0.59
2023-02-07T10:00:28.831Z,0.68
2023-02-07T10:02:44.496Z,0.80
2023-02-07T10:04:52.834Z,0.87
2023-02-07T10:07:00.297Z,0.94
2023-02-07T10:09:05.341Z,0.99
2023-02-07T10:11:23.841Z,1.08
2023-02-07T10:13:50.324Z,0.92
2023-02-07T10:16:16.417Z,1.06
2023-02-07T10:18:42.852Z,1.11
2023-02-07T10:20:59.300Z,1.29
2023-02-07T10:23:30.977Z,1.27
2023-02-07T10:25:45.715Z,1.29
2023-02-07T10:28:04.408Z,1.55
2023-02-07T10:30:18.596Z,1.79
2023-02-07T10:32:27.461Z,1.72
2023-02-07T10:34:41.478Z,1.77
2023-02-07T10:36:51.566Z,1.70
2023-02-07T10:39:09.526Z,1.79
2023-02-07T10:41:21.787Z,1.88
2023-02-07T10:43:35.221Z,1.98
2023-02-07T10:45:44.105Z,1.95
2023-02-07T10:47:49.640Z,2.04
2023-02-07T10:49:58.464Z,1.99
2023-02-07T10:52:16.269Z,2.16
2023-02-07T10:54:24.647Z,2.16
2023-02-07T10:56:31.453Z,2.15
2023-02-07T10:58:42.353Z,2.35
2023-02-07T11:00:52.304Z,2.46
2023-02-07T11:03:03.997Z,2.58
2023-02-07T11:05:35.260Z,2.58
2023-02-07T11:07:47.675Z,2.51
2023-02-07T11:09:52.889Z,2.66
2023-02-07T11:11:58.721Z,2.68
2023-02-07T11:14:08.411Z,2.62
2023-02-07T11:16:13.418Z,2.92
2023-02-07T11:18:38.611Z,3.06
2023-02-07T11:20:53.347Z,2.83
2023-02-07T11:23:00.164Z,3.13
2023-02-07T11:25:09.189Z,2.97
2023-02-07T11:27:18.650Z,3.10
2023-02-07T11:29:25.903Z,3.08
2023-02-07T11:31:35.290Z,3.26
2023-02-07T11:33:40.685Z,3.34
2023-02-07T11:36:15.145Z,3.57
2023-02-07T11:38:21.425Z,3.07
2023-02-07T11:40:31.909Z,3.20
2023-02-07T11:42:39.758Z,3.46
2023-02-07T11:44:47.750Z,3.61
2023-02-07T11:46:53.745Z,3.72
2023-02-07T11:49:01.750Z,3.57
2023-02-07T11:51:18.389Z,3.78
2023-02-07T11:53:27.368Z,3.82
2023-02-07T11:55:38.149Z,3.92
2023-02-07T11:57:43.960Z,4.14
2023-02-07T11:59:54.934Z,4.06
2023-02-07T12:02:04.532Z,4.13
2023-02-07T12:04:16.052Z,4.02
2023-02-07T12:06:29.562Z,4.04
2023-02-07T12:08:38.971Z,4.11
2023-02-07T12:10:49.989Z,3.85
2023-02-07T12:13:03.749Z,4.13
2023-02-07T12:15:16.964Z,4.43
2023-02-07T12:17:29.611Z,4.39
2023-02-07T12:19:39.758Z,4.50
2023-02-07T12:22:00.132Z,4.28
2023-02-07T12:24:14.322Z,4.48
2023-02-07T12:26:27.786Z,4.39
2023-02-07T12:28:42.661Z,4.51
2023-02-07T12:30:53.422Z,4.64
2023-02-07T12:33:10.172Z,4.50
2023-02-07T12:35:25.690Z,4.53
2023-02-07T12:37:43.163Z,4.65
2023-02-07T12:39:57.472Z,4.79
2023-02-07T12:42:21.898Z,4.81
2023-02-07T12:44:32.672Z,5.17
2023-02-07T12:46:49.732Z,5.50
2023-02-07T12:49:12.596Z,5.89
2023-02-07T12:51:33.943Z,5.88
2023-02-07T12:54:03.524Z,6.27
2023-02-07T12:56:25.419Z,6.67
2023-02-07T12:58:50.271Z,6.43
2023-02-07T13:01:03.297Z,6.90
2023-02-07T13:03:27.635Z,7.22
2023-02-07T13:06:03.525Z,7.45
2023-02-07T13:08:20.841Z,7.80
2023-02-07T13:10:39.876Z,7.93
2023-02-07T13:12:52.309Z,8.39
2023-02-07T13:15:16.749Z,8.92
2023-02-07T13:17:43.832Z,8.72
2023-02-07T13:19:56.094Z,8.76
2023-02-07T13:22:06.494Z,9.84
2023-02-07T13:24:17.313Z,9.11
2023-02-07T13:26:27.567Z,9.23
2023-02-07T13:28:43.489Z,9.64
2023-02-07T13:30:50.846Z,9.59
2023-02-07T13:32:56.489Z,9.47
2023-02-07T13:35:05.804Z,9.97
2023-02-07T13:37:17.323Z,10.34
2023-02-07T13:39:35.882Z,10.69
2023-02-07T13:41:57.965Z,10.61
2023-02-07T13:44:16.028Z,9.61
2023-02-07T13:46:46.723Z,10.27
2023-02-07T13:48:59.377Z,9.63
2023-02-07T13:51:16.041Z,10.67
2023-02-07T13:53:42.555Z,11.29
2023-02-07T13:55:48.262Z,11.33
2023-02-07T13:58:09.856Z,11.10
2023-02-07T14:00:24.166Z,10.26
2023-02-07T14:02:32.244Z,10.86
2023-02-07T14:04:52.431Z,10.38
2023-02-07T14:07:11.999Z,11.06
2023-02-07T14:09:26.471Z,11.76
2023-02-07T14:11:41.693Z,11.61
2023-02-07T14:13:49.602Z,11.64
2023-02-07T14:16:09.572Z,11.94
2023-02-07T14:18:48.698Z,12.66
2023-02-07T14:21:04.180Z,12.25
2023-02-07T14:23:19.442Z,13.00
2023-02-07T14:25:26.707Z,12.32
2023-02-07T14:27:35.314Z,13.16
2023-02-07T14:30:22.438Z,12.97
2023-02-07T14:32:42.847Z,13.97
2023-02-07T14:35:08.432Z,13.01
2023-02-07T14:37:25.605Z,13.43
2023-02-07T14:39:34.839Z,13.47
2023-02-07T14:41:44.431Z,13.64
2023-02-07T14:44:08.031Z,13.87
2023-02-07T14:46:20.841Z,13.96
2023-02-07T14:48:40.832Z,13.12
2023-02-07T14:50:55.760Z,13.03
2023-02-07T14:53:04.452Z,13.33
2023-02-07T14:55:19.082Z,12.53
2023-02-07T14:57:40.957Z,12.39
2023-02-07T15:00:00.392Z,13.13
2023-02-07T15:02:38.534Z,13.99
2023-02-07T15:04:46.454Z,12.47
2023-02-07T15:06:51.688Z,13.94
2023-02-07T15:09:02.869Z,12.24
2023-02-07T15:11:17.013Z,11.18
2023-02-07T15:13:30.991Z,12.27
2023-02-07T15:15:51.331Z,12.64
2023-02-07T15:18:02.365Z,12.97
2023-02-07T15:20:09.381Z,12.75
2023-02-07T15:22:29.099Z,13.12
2023-02-07T15:24:50.706Z,12.98
2023-02-07T15:27:00.861Z,12.67
2023-02-07T15:29:09.713Z,12.47
2023-02-07T15:31:18.329Z,12.22
2023-02-07T15:33:28.334Z,12.48
2023-02-07T15:35:42.451Z,12.30
2023-02-07T15:37:48.777Z,12.02
2023-02-07T15:39:55.924Z,11.98
2023-02-07T15:42:01.509Z,12.20
2023-02-07T15:44:09.513Z,12.14
2023-02-07T15:46:15.805Z,11.57
2023-02-07T15:48:20.906Z,11.57
2023-02-07T15:50:32.776Z,11.40
2023-02-07T15:52:42.911Z,10.95
2023-02-07T15:54:53.086Z,9.82
2023-02-07T15:57:02.885Z,9.59
2023-02-07T15:59:14.147Z,8.70
2023-02-07T16:01:34.965Z,7.80
2023-02-07T16:03:44.151Z,7.11
2023-02-07T16:05:52.366Z,6.11
2023-02-07T16:07:58.582Z,5.20
2023-02-07T16:10:20.491Z,4.45
2023-02-07T16:12:45.635Z,3.94
2023-02-07T16:14:51.112Z,3.50
2023-02-07T16:16:58.139Z,3.20
2023-02-07T16:19:18.389Z,2.98
2023-02-07T16:21:29.154Z,2.62
2023-02-07T16:23:34.764Z,2.37
2023-02-07T16:25:40.444Z,2.15
2023-02-07T16:27:49.168Z,1.86
2023-02-07T16:29:54.564Z,1.61
2023-02-07T16:31:59.750Z,1.37
2023-02-07T16:34:04.682Z,1.16
2023-02-07T16:36:15.638Z,0.99
2023-02-07T16:38:23.453Z,0.78
2023-02-07T16:40:29.243Z,0.57
2023-02-07T16:42:36.043Z,0.38
2023-02-07T16:44:40.953Z,0.26
2023-02-07T16:46:45.904Z,0.22
2023-02-07T16:48:51.375Z,0.13
2023-02-07T16:50:57.929Z,-0.02
2023-02-07T16:53:02.921Z,-0.17
2023-02-07T16:55:13.236Z,-0.34
2023-02-07T16:57:18.427Z,-0.47
2023-02-07T16:59:25.798Z,-0.52
2023-02-07T17:01:30.733Z,-0.54
2023-02-07T17:03:36.482Z,-0.68
2023-02-07T17:05:41.370Z,-0.75
2023-02-07T17:07:47.239Z,-0.81
2023-02-07T17:09:52.641Z,-0.96
2023-02-07T17:12:00.132Z,-1.09
2023-02-07T17:14:05.030Z,-1.18
2023-02-07T17:16:14.512Z,-1.26
2023-02-07T17:18:20.617Z,-1.25
2023-02-07T17:20:28.770Z,-1.30
2023-02-07T17:22:33.673Z,-1.24
2023-02-07T17:24:38.602Z,-1.33
2023-02-07T17:26:46.864Z,-1.46
2023-02-07T17:28:55.023Z,-1.56
2023-02-07T17:31:00.172Z,-1.57
2023-02-07T17:33:05.077Z,-1.66
2023-02-07T17:35:11.113Z,-1.72
2023-02-07T17:37:16.356Z,-1.77
2023-02-07T17:39:23.448Z,-1.84
2023-02-07T17:41:28.816Z,-1.85
2023-02-07T17:43:33.758Z,-1.96
2023-02-07T17:45:41.296Z,-1.97
2023-02-07T17:47:46.983Z,-1.96
2023-02-07T17:49:51.864Z,-2.06
2023-02-07T17:51:56.968Z,-2.08
2023-02-07T17:54:01.862Z,-2.05
2023-02-07T17:56:08.083Z,-1.99
2023-02-07T17:58:21.254Z,-2.08
2023-02-07T18:00:29.618Z,-2.17
2023-02-07T18:02:38.081Z,-2.26
2023-02-07T18:04:43.012Z,-2.36
2023-02-07T18:06:47.969Z,-2.48
2023-02-07T18:08:54.498Z,-2.42
2023-02-07T18:11:04.235Z,-2.38
2023-02-07T18:13:09.163Z,-2.40
2023-02-07T18:15:15.329Z,-2.50
2023-02-07T18:17:22.824Z,-2.55
2023-02-07T18:19:33.065Z,-2.56
2023-02-07T18:21:38.708Z,-2.57
2023-02-07T18:23:44.027Z,-2.67
2023-02-07T18:25:51.161Z,-2.63
2023-02-07T18:27:57.101Z,-2.74
2023-02-07T18:30:02.081Z,-2.82
2023-02-07T18:32:07.234Z,-2.90
2023-02-07T18:34:14.049Z,-2.95
2023-02-07T18:36:26.840Z,-2.93
2023-02-07T18:38:33.723Z,-2.91
2023-02-07T18:40:38.873Z,-2.79
2023-02-07T18:42:44.158Z,-2.83
2023-02-07T18:44:49.214Z,-2.82
2023-02-07T18:46:54.100Z,-2.99
2023-02-07T18:49:00.825Z,-3.12
2023-02-07T18:51:09.699Z,-3.13
2023-02-07T18:53:17.259Z,-3.04
2023-02-07T18:55:22.224Z,-3.09
2023-02-07T18:57:27.111Z,-3.18
2023-02-07T18:59:32.006Z,-3.22
2023-02-07T19:01:37.713Z,-3.08
2023-02-07T19:03:44.594Z,-3.06
2023-02-07T19:05:49.482Z,-3.22
2023-02-07T19:07:56.362Z,-3.33
2023-02-07T19:10:04.363Z,-3.42
2023-02-07T19:12:10.946Z,-3.45
2023-02-07T19:14:18.174Z,-3.41
2023-02-07T19:16:26.450Z,-3.53
2023-02-07T19:18:31.390Z,-3.63
2023-02-07T19:20:36.383Z,-3.55
2023-02-07T19:22:41.592Z,-3.30
2023-02-07T19:24:46.502Z,-3.30
2023-02-07T19:26:57.165Z,-3.43
2023-02-07T19:29:05.250Z,-3.46
2023-02-07T19:31:17.770Z,-3.68
2023-02-07T19:33:23.124Z,-3.77
2023-02-07T19:35:28.013Z,-3.79
2023-02-07T19:37:32.881Z,-3.71
2023-02-07T19:39:37.788Z,-3.74
2023-02-07T19:41:42.703Z,-3.80
2023-02-07T19:43:50.988Z,-3.82
2023-02-07T19:45:56.455Z,-3.86
2023-02-07T19:48:01.409Z,-3.92
2023-02-07T19:50:07.546Z,-3.83
2023-02-07T19:52:12.508Z,-3.65
2023-02-07T19:54:17.821Z,-3.78
2023-02-07T19:56:26.897Z,-3.93
2023-02-07T19:58:32.714Z,-4.07
2023-02-07T20:00:40.511Z,-4.06
2023-02-07T20:02:45.579Z,-4.17
2023-02-07T20:04:54.556Z,-4.15
2023-02-07T20:07:00.147Z,-4.09
2023-02-07T20:09:09.196Z,-4.13
2023-02-07T20:11:17.667Z,-4.18
2023-02-07T20:13:22.627Z,-4.22
2023-02-07T20:15:27.559Z,-4.20
2023-02-07T20:17:35.059Z,-4.29
2023-02-07T20:19:40.578Z,-4.37
2023-02-07T20:21:46.206Z,-4.38
2023-02-07T20:23:52.284Z,-4.28
2023-02-07T20:25:57.590Z,-4.28
2023-02-07T20:28:02.706Z,-4.31
2023-02-07T20:30:09.051Z,-4.28
2023-02-07T20:32:15.542Z,-4.25
2023-02-07T20:34:23.256Z,-4.25
2023-02-07T20:36:29.477Z,-4.31
2023-02-07T20:38:34.681Z,-4.28
2023-02-07T20:40:40.889Z,-4.35
2023-02-07T20:42:46.401Z,-4.33
2023-02-07T20:44:51.341Z,-4.29
2023-02-07T20:46:59.358Z,-4.16
2023-02-07T20:49:07.345Z,-4.28
2023-02-07T20:51:16.196Z,-4.33
2023-02-07T20:53:21.075Z,-4.45
2023-02-07T20:55:27.004Z,-4.50
2023-02-07T20:57:32.138Z,-4.43
2023-02-07T20:59:37.562Z,-4.45
2023-02-07T21:01:42.574Z,-4.23
2023-02-07T21:03:48.965Z,-4.18
2023-02-07T21:05:53.858Z,-4.27
2023-02-07T21:08:02.074Z,-4.43
2023-02-07T21:10:09.607Z,-4.56
2023-02-07T21:12:14.529Z,-4.65
2023-02-07T21:14:24.872Z,-4.75
2023-02-07T21:16:30.812Z,-4.56
2023-02-07T21:18:37.670Z,-4.58
2023-02-07T21:20:43.452Z,-4.63
2023-02-07T21:22:48.353Z,-4.67
2023-02-07T21:24:55.823Z,-4.61
2023-02-07T21:27:03.101Z,-4.62
2023-02-07T21:29:09.042Z,-4.58
2023-02-07T21:31:17.410Z,-4.68
2023-02-07T21:33:22.376Z,-4.60
2023-02-07T21:35:27.265Z,-4.70
2023-02-07T21:37:32.435Z,-4.79
2023-02-07T21:39:37.398Z,-4.67
2023-02-07T21:41:48.027Z,-4.70
2023-02-07T21:43:53.289Z,-4.84
2023-02-07T21:46:07.052Z,-4.96
2023-02-07T21:48:11.976Z,-4.95
2023-02-07T21:50:16.894Z,-4.94
2023-02-07T21:52:22.277Z,-4.98
2023-02-07T21:54:27.167Z,-4.92
2023-02-07T21:56:35.121Z,-4.93
2023-02-07T21:58:42.948Z,-5.12
2023-02-07T22:00:47.833Z,-5.04
2023-02-07T22:02:52.758Z,-5.11
2023-02-07T22:04:57.678Z,-5.21
2023-02-07T22:07:02.571Z,-5.18
2023-02-07T22:09:08.055Z,-5.07
2023-02-07T22:11:14.592Z,-5.09
2023-02-07T22:13:19.532Z,-5.02
2023-02-07T22:15:27.030Z,-5.15
2023-02-07T22:17:31.986Z,-5.19
2023-02-07T22:19:36.882Z,-5.26
2023-02-07T22:21:42.177Z,-5.05
2023-02-07T22:23:47.124Z,-5.08
2023-02-07T22:25:54.944Z,-5.16
2023-02-07T22:28:00.672Z,-5.22
2023-02-07T22:30:05.675Z,-5.10
2023-02-07T22:32:13.176Z,-5.02
2023-02-07T22:34:19.046Z,-5.11
2023-02-07T22:36:29.078Z,-5.19
2023-02-07T22:38:34.027Z,-5.31
2023-02-07T22:40:41.597Z,-5.34
2023-02-07T22:42:46.704Z,-5.34
2023-02-07T22:44:51.920Z,-5.45
2023-02-07T22:46:57.240Z,-5.57
2023-02-07T22:49:04.746Z,-5.64
2023-02-07T22:51:20.406Z,-5.70
2023-02-07T22:53:25.633Z,-5.57
2023-02-07T22:55:30.535Z,-5.37
2023-02-07T22:57:35.435Z,-5.36
2023-02-07T22:59:41.059Z,-5.51
2023-02-07T23:01:47.344Z,-5.63
2023-02-07T23:03:53.994Z,-5.74
2023-02-07T23:06:05.238Z,-5.77
2023-02-07T23:08:10.246Z,-5.70
2023-02-07T23:10:15.434Z,-5.60
2023-02-07T23:12:20.331Z,-5.59
2023-02-07T23:14:25.275Z,-5.74
2023-02-07T23:16:32.266Z,-5.76
2023-02-07T23:18:37.567Z,-5.75
2023-02-07T23:20:47.468Z,-5.86
2023-02-07T23:22:54.924Z,-5.87
2023-02-07T23:24:59.927Z,-5.85
2023-02-07T23:27:04.867Z,-5.95
2023-02-07T23:29:10.028Z,-5.84
2023-02-07T23:31:19.749Z,-5.74
2023-02-07T23:33:24.740Z,-5.82
2023-02-07T23:35:30.217Z,-5.75
2023-02-07T23:37:35.704Z,-5.71
2023-02-07T23:39:43.213Z,-5.59
2023-02-07T23:41:48.205Z,-5.60
2023-02-07T23:43:53.170Z,-5.62
2023-02-07T23:45:58.519Z,-5.71
2023-02-07T23:48:08.726Z,-5.85
2023-02-07T23:50:14.624Z,-5.70
2023-02-07T23:52:20.207Z,-5.84
2023-02-07T23:54:25.247Z,-5.72
2023-02-07T23:56:32.962Z,-5.59
2023-02-07T23:58:39.612Z,-5.65
